sensor_id;sensor_type;location;lat;lon;timestamp;pressure;altitude;pressure_sealevel;temperature;humidity
17505;BME280;8870;50.950;11.762;2023-03-25T00:01:50;97278.28;;;8.64;100.00
17505;BME280;8870;50.950;11.762;2023-03-25T00:07:21;97272.63;;;8.59;100.00
17505;BME280;8870;50.950;11.762;2023-03-25T00:12:42;97257.22;;;8.53;100.00
17505;BME280;8870;50.950;11.762;2023-03-25T00:18:14;97263.91;;;8.57;100.00
17505;BME280;8870;50.950;11.762;2023-03-25T00:23:35;97259.94;;;8.45;100.00
17505;BME280;8870;50.950;11.762;2023-03-25T00:29:09;97249.91;;;8.39;100.00
17505;BME280;8870;50.950;11.762;2023-03-25T00:34:41;97255.28;;;8.39;100.00
17505;BME280;8870;50.950;11.762;2023-03-25T00:40:01;97258.31;;;8.36;100.00
17505;BME280;8870;50.950;11.762;2023-03-25T00:45:35;97259.50;;;8.33;100.00
17505;BME280;8870;50.950;11.762;2023-03-25T00:51:00;97255.44;;;8.37;100.00
17505;BME280;8870;50.950;11.762;2023-03-25T00:56:34;97264.63;;;8.43;100.00
17505;BME280;8870;50.950;11.762;2023-03-25T01:01:55;97250.41;;;8.42;100.00
17505;BME280;8870;50.950;11.762;2023-03-25T01:07:22;97236.44;;;8.47;100.00
17505;BME280;8870;50.950;11.762;2023-03-25T01:12:52;97229.09;;;8.49;100.00
17505;BME280;8870;50.950;11.762;2023-03-25T01:18:14;97237.28;;;8.47;100.00
17505;BME280;8870;50.950;11.762;2023-03-25T01:23:44;97226.44;;;8.41;100.00
17505;BME280;8870;50.950;11.762;2023-03-25T01:29:03;97214.38;;;8.37;100.00
17505;BME280;8870;50.950;11.762;2023-03-25T01:34:36;97194.22;;;8.41;100.00
17505;BME280;8870;50.950;11.762;2023-03-25T01:39:56;97203.63;;;8.37;100.00
17505;BME280;8870;50.950;11.762;2023-03-25T01:45:30;97209.00;;;8.37;100.00
17505;BME280;8870;50.950;11.762;2023-03-25T01:51:02;97176.97;;;8.35;100.00
17505;BME280;8870;50.950;11.762;2023-03-25T01:56:39;97182.16;;;8.37;100.00
17505;BME280;8870;50.950;11.762;2023-03-25T02:02:02;97176.81;;;8.37;100.00
17505;BME280;8870;50.950;11.762;2023-03-25T02:07:41;97176.31;;;8.33;100.00
17505;BME280;8870;50.950;11.762;2023-03-25T02:13:02;97178.63;;;8.36;100.00
17505;BME280;8870;50.950;11.762;2023-03-25T02:18:42;97172.88;;;8.47;100.00
17505;BME280;8870;50.950;11.762;2023-03-25T02:24:30;97164.31;;;8.52;100.00
17505;BME280;8870;50.950;11.762;2023-03-25T02:41:58;97162.84;;;8.64;100.00
17505;BME280;8870;50.950;11.762;2023-03-25T02:47:22;97154.22;;;8.77;100.00
17505;BME280;8870;50.950;11.762;2023-03-25T02:52:56;97151.63;;;8.84;100.00
17505;BME280;8870;50.950;11.762;2023-03-25T02:58:34;97148.41;;;8.89;100.00
17505;BME280;8870;50.950;11.762;2023-03-25T03:03:53;97146.72;;;8.88;100.00
17505;BME280;8870;50.950;11.762;2023-03-25T03:09:32;97150.22;;;8.88;100.00
17505;BME280;8870;50.950;11.762;2023-03-25T03:15:04;97149.88;;;8.91;100.00
17505;BME280;8870;50.950;11.762;2023-03-25T03:20:43;97155.91;;;8.93;100.00
17505;BME280;8870;50.950;11.762;2023-03-25T03:26:10;97155.09;;;8.93;100.00
17505;BME280;8870;50.950;11.762;2023-03-25T03:31:50;97158.59;;;8.93;100.00
17505;BME280;8870;50.950;11.762;2023-03-25T03:37:17;97160.91;;;8.97;100.00
17505;BME280;8870;50.950;11.762;2023-03-25T03:42:54;97175.38;;;8.96;100.00
17505;BME280;8870;50.950;11.762;2023-03-25T03:48:21;97185.25;;;8.95;100.00
17505;BME280;8870;50.950;11.762;2023-03-25T03:53:57;97163.59;;;8.97;100.00
17505;BME280;8870;50.950;11.762;2023-03-25T03:59:36;97161.59;;;8.99;100.00
17505;BME280;8870;50.950;11.762;2023-03-25T04:04:59;97173.22;;;8.91;100.00
17505;BME280;8870;50.950;11.762;2023-03-25T04:10:36;97177.91;;;8.74;100.00
17505;BME280;8870;50.950;11.762;2023-03-25T04:15:58;97187.56;;;8.60;100.00
17505;BME280;8870;50.950;11.762;2023-03-25T04:21:32;97193.50;;;8.47;100.00
17505;BME280;8870;50.950;11.762;2023-03-25T04:26:51;97210.84;;;8.36;100.00
17505;BME280;8870;50.950;11.762;2023-03-25T04:32:25;97185.88;;;8.36;100.00
17505;BME280;8870;50.950;11.762;2023-03-25T04:37:47;97204.97;;;8.41;100.00
17505;BME280;8870;50.950;11.762;2023-03-25T04:43:18;97205.78;;;8.41;100.00
17505;BME280;8870;50.950;11.762;2023-03-25T04:48:37;97211.25;;;8.25;100.00
17505;BME280;8870;50.950;11.762;2023-03-25T04:54:11;97201.84;;;8.29;100.00
17505;BME280;8870;50.950;11.762;2023-03-25T04:59:30;97200.75;;;8.15;100.00
17505;BME280;8870;50.950;11.762;2023-03-25T05:05:01;97205.84;;;8.01;100.00
17505;BME280;8870;50.950;11.762;2023-03-25T05:10:23;97204.03;;;7.94;100.00
17505;BME280;8870;50.950;11.762;2023-03-25T05:15:55;97204.84;;;7.94;100.00
17505;BME280;8870;50.950;11.762;2023-03-25T05:21:14;97213.41;;;7.90;100.00
17505;BME280;8870;50.950;11.762;2023-03-25T05:26:41;97211.81;;;7.72;100.00
17505;BME280;8870;50.950;11.762;2023-03-25T05:32:06;97209.66;;;7.67;100.00
17505;BME280;8870;50.950;11.762;2023-03-25T05:37:24;97221.56;;;7.65;100.00
17505;BME280;8870;50.950;11.762;2023-03-25T05:42:57;97222.06;;;7.68;100.00
17505;BME280;8870;50.950;11.762;2023-03-25T05:48:17;97223.38;;;7.72;100.00
17505;BME280;8870;50.950;11.762;2023-03-25T05:53:48;97240.31;;;7.73;100.00
17505;BME280;8870;50.950;11.762;2023-03-25T05:59:21;97249.19;;;7.74;100.00
17505;BME280;8870;50.950;11.762;2023-03-25T06:04:40;97252.88;;;7.72;100.00
17505;BME280;8870;50.950;11.762;2023-03-25T06:10:13;97263.63;;;7.64;100.00
17505;BME280;8870;50.950;11.762;2023-03-25T06:15:34;97271.84;;;7.63;100.00
17505;BME280;8870;50.950;11.762;2023-03-25T06:21:06;97275.84;;;7.59;100.00
17505;BME280;8870;50.950;11.762;2023-03-25T06:26:25;97267.31;;;7.55;100.00
17505;BME280;8870;50.950;11.762;2023-03-25T06:32:02;97281.38;;;7.49;100.00
17505;BME280;8870;50.950;11.762;2023-03-25T06:37:20;97289.09;;;7.35;100.00
17505;BME280;8870;50.950;11.762;2023-03-25T06:42:58;97289.28;;;7.34;100.00
17505;BME280;8870;50.950;11.762;2023-03-25T06:48:50;97290.97;;;7.18;100.00
17505;BME280;8870;50.950;11.762;2023-03-25T06:54:23;97301.19;;;7.15;100.00
17505;BME280;8870;50.950;11.762;2023-03-25T06:59:41;97314.25;;;7.09;100.00
17505;BME280;8870;50.950;11.762;2023-03-25T07:05:14;97312.41;;;7.02;100.00
17505;BME280;8870;50.950;11.762;2023-03-25T07:10:33;97323.59;;;6.97;100.00
17505;BME280;8870;50.950;11.762;2023-03-25T07:16:05;97317.25;;;6.98;100.00
17505;BME280;8870;50.950;11.762;2023-03-25T07:21:25;97329.97;;;6.96;100.00
17505;BME280;8870;50.950;11.762;2023-03-25T07:26:57;97340.34;;;6.99;100.00
17505;BME280;8870;50.950;11.762;2023-03-25T07:32:19;97356.06;;;6.94;100.00
17505;BME280;8870;50.950;11.762;2023-03-25T07:37:53;97348.03;;;7.02;100.00
17505;BME280;8870;50.950;11.762;2023-03-25T07:43:12;97355.06;;;7.03;100.00
17505;BME280;8870;50.950;11.762;2023-03-25T07:48:59;97359.59;;;7.03;100.00
17505;BME280;8870;50.950;11.762;2023-03-25T07:54:26;97351.06;;;7.16;100.00
17505;BME280;8870;50.950;11.762;2023-03-25T07:59:59;97328.81;;;7.32;100.00
17505;BME280;8870;50.950;11.762;2023-03-25T08:05:19;97324.28;;;7.57;100.00
17505;BME280;8870;50.950;11.762;2023-03-25T08:10:53;97314.16;;;7.84;100.00
17505;BME280;8870;50.950;11.762;2023-03-25T08:16:13;97319.47;;;8.09;100.00
17505;BME280;8870;50.950;11.762;2023-03-25T08:21:45;97333.13;;;8.30;100.00
17505;BME280;8870;50.950;11.762;2023-03-25T08:27:05;97314.13;;;8.40;100.00
17505;BME280;8870;50.950;11.762;2023-03-25T08:32:37;97307.94;;;8.40;100.00
17505;BME280;8870;50.950;11.762;2023-03-25T08:37:55;97320.84;;;8.44;100.00
17505;BME280;8870;50.950;11.762;2023-03-25T08:43:30;97324.88;;;8.40;100.00
17505;BME280;8870;50.950;11.762;2023-03-25T08:48:52;97332.16;;;8.23;100.00
17505;BME280;8870;50.950;11.762;2023-03-25T08:54:23;97309.31;;;8.36;100.00
17505;BME280;8870;50.950;11.762;2023-03-25T08:59:56;97310.09;;;8.53;100.00
17505;BME280;8870;50.950;11.762;2023-03-25T09:05:15;97300.03;;;8.46;100.00
17505;BME280;8870;50.950;11.762;2023-03-25T09:10:48;97320.38;;;8.32;100.00
17505;BME280;8870;50.950;11.762;2023-03-25T09:16:09;97289.16;;;8.40;100.00
17505;BME280;8870;50.950;11.762;2023-03-25T09:21:40;97285.13;;;8.75;100.00
17505;BME280;8870;50.950;11.762;2023-03-25T09:26:58;97277.56;;;9.02;100.00
17505;BME280;8870;50.950;11.762;2023-03-25T09:32:31;97279.56;;;9.23;100.00
17505;BME280;8870;50.950;11.762;2023-03-25T09:37:50;97282.53;;;9.52;100.00
17505;BME280;8870;50.950;11.762;2023-03-25T09:43:30;97277.81;;;9.69;100.00
17505;BME280;8870;50.950;11.762;2023-03-25T09:48:55;97270.56;;;9.84;100.00
17505;BME280;8870;50.950;11.762;2023-03-25T09:54:29;97281.16;;;10.01;100.00
17505;BME280;8870;50.950;11.762;2023-03-25T10:00:03;97291.06;;;9.85;100.00
17505;BME280;8870;50.950;11.762;2023-03-25T10:11:26;97284.31;;;9.90;100.00
17505;BME280;8870;50.950;11.762;2023-03-25T10:16:59;97293.69;;;10.09;100.00
17505;BME280;8870;50.950;11.762;2023-03-25T10:22:39;97287.91;;;9.97;100.00
17505;BME280;8870;50.950;11.762;2023-03-25T10:28:02;97276.50;;;10.40;100.00
17505;BME280;8870;50.950;11.762;2023-03-25T10:33:36;97275.72;;;10.61;100.00
17505;BME280;8870;50.950;11.762;2023-03-25T10:39:00;97285.22;;;10.78;100.00
17505;BME280;8870;50.950;11.762;2023-03-25T10:44:34;97278.34;;;10.54;100.00
17505;BME280;8870;50.950;11.762;2023-03-25T10:49:53;97276.22;;;10.50;100.00
17505;BME280;8870;50.950;11.762;2023-03-25T10:55:31;97292.16;;;10.51;100.00
17505;BME280;8870;50.950;11.762;2023-03-25T11:00:52;97261.75;;;10.72;100.00
17505;BME280;8870;50.950;11.762;2023-03-25T11:06:27;97275.22;;;10.72;100.00
17505;BME280;8870;50.950;11.762;2023-03-25T11:11:49;97286.53;;;10.83;100.00
17505;BME280;8870;50.950;11.762;2023-03-25T11:17:20;97257.59;;;10.91;100.00
17505;BME280;8870;50.950;11.762;2023-03-25T11:22:45;97249.69;;;11.12;100.00
17505;BME280;8870;50.950;11.762;2023-03-25T11:28:24;97243.34;;;10.98;100.00
17505;BME280;8870;50.950;11.762;2023-03-25T11:34:03;97228.78;;;10.92;100.00
17505;BME280;8870;50.950;11.762;2023-03-25T11:39:37;97238.28;;;10.88;100.00
17505;BME280;8870;50.950;11.762;2023-03-25T11:44:59;97235.97;;;11.06;100.00
17505;BME280;8870;50.950;11.762;2023-03-25T11:50:32;97223.00;;;10.95;100.00
17505;BME280;8870;50.950;11.762;2023-03-25T11:55:54;97213.53;;;10.99;100.00
17505;BME280;8870;50.950;11.762;2023-03-25T12:01:37;97206.91;;;11.02;100.00
17505;BME280;8870;50.950;11.762;2023-03-25T12:06:59;97196.66;;;10.90;100.00
17505;BME280;8870;50.950;11.762;2023-03-25T12:12:39;97179.47;;;11.20;100.00
17505;BME280;8870;50.950;11.762;2023-03-25T12:18:11;97180.66;;;11.39;100.00
17505;BME280;8870;50.950;11.762;2023-03-25T12:23:55;97167.09;;;11.61;100.00
17505;BME280;8870;50.950;11.762;2023-03-25T12:29:28;97202.94;;;11.26;100.00
17505;BME280;8870;50.950;11.762;2023-03-25T12:35:13;97282.63;;;9.20;100.00
17505;BME280;8870;50.950;11.762;2023-03-25T12:40:48;97303.69;;;7.24;100.00
17505;BME280;8870;50.950;11.762;2023-03-25T12:46:33;97274.38;;;6.82;100.00
17505;BME280;8870;50.950;11.762;2023-03-25T12:52:05;97275.72;;;6.69;100.00
17505;BME280;8870;50.950;11.762;2023-03-25T12:57:49;97270.84;;;6.73;100.00
17505;BME280;8870;50.950;11.762;2023-03-25T13:03:43;97280.41;;;6.84;100.00
17505;BME280;8870;50.950;11.762;2023-03-25T13:09:23;97275.38;;;6.89;100.00
17505;BME280;8870;50.950;11.762;2023-03-25T13:14:47;97266.38;;;6.98;100.00
17505;BME280;8870;50.950;11.762;2023-03-25T13:20:23;97263.88;;;7.05;100.00
17505;BME280;8870;50.950;11.762;2023-03-25T13:25:47;97247.25;;;7.26;100.00
17505;BME280;8870;50.950;11.762;2023-03-25T13:31:22;97244.66;;;7.66;100.00
17505;BME280;8870;50.950;11.762;2023-03-25T13:36:49;97238.03;;;8.01;100.00
17505;BME280;8870;50.950;11.762;2023-03-25T13:42:35;97229.88;;;8.18;100.00
17505;BME280;8870;50.950;11.762;2023-03-25T13:48:03;97233.72;;;8.55;100.00
17505;BME280;8870;50.950;11.762;2023-03-25T13:53:39;97217.44;;;8.80;100.00
17505;BME280;8870;50.950;11.762;2023-03-25T14:05:45;97228.31;;;9.10;100.00
17505;BME280;8870;50.950;11.762;2023-03-25T14:11:24;97211.44;;;9.16;100.00
17505;BME280;8870;50.950;11.762;2023-03-25T14:16:46;97212.41;;;9.68;100.00
17505;BME280;8870;50.950;11.762;2023-03-25T14:22:26;97223.59;;;10.17;100.00
17505;BME280;8870;50.950;11.762;2023-03-25T14:27:48;97213.66;;;10.32;100.00
17505;BME280;8870;50.950;11.762;2023-03-25T14:33:20;97219.53;;;10.21;100.00
17505;BME280;8870;50.950;11.762;2023-03-25T14:38:56;97221.13;;;10.15;100.00
17505;BME280;8870;50.950;11.762;2023-03-25T14:44:29;97203.06;;;10.89;100.00
17505;BME280;8870;50.950;11.762;2023-03-25T14:49:49;97224.69;;;10.74;100.00
17505;BME280;8870;50.950;11.762;2023-03-25T14:55:29;97198.78;;;10.73;100.00
17505;BME280;8870;50.950;11.762;2023-03-25T15:01:05;97194.66;;;10.77;100.00
17505;BME280;8870;50.950;11.762;2023-03-25T15:06:32;97199.09;;;10.63;100.00
17505;BME280;8870;50.950;11.762;2023-03-25T15:12:13;97209.09;;;10.91;100.00
17505;BME280;8870;50.950;11.762;2023-03-25T15:17:42;97187.06;;;11.09;100.00
17505;BME280;8870;50.950;11.762;2023-03-25T15:23:29;97189.88;;;11.01;100.00
17505;BME280;8870;50.950;11.762;2023-03-25T15:29:11;97183.97;;;11.41;100.00
17505;BME280;8870;50.950;11.762;2023-03-25T15:35:07;97191.31;;;11.54;100.00
17505;BME280;8870;50.950;11.762;2023-03-25T15:40:30;97189.78;;;11.38;100.00
17505;BME280;8870;50.950;11.762;2023-03-25T15:46:23;97177.25;;;11.30;100.00
17505;BME280;8870;50.950;11.762;2023-03-25T15:51:56;97169.13;;;11.23;100.00
17505;BME280;8870;50.950;11.762;2023-03-25T15:57:39;97167.19;;;11.17;100.00
17505;BME280;8870;50.950;11.762;2023-03-25T16:03:07;97190.53;;;11.03;100.00
17505;BME280;8870;50.950;11.762;2023-03-25T16:08:45;97190.41;;;10.90;100.00
17505;BME280;8870;50.950;11.762;2023-03-25T16:14:10;97186.06;;;10.89;100.00
17505;BME280;8870;50.950;11.762;2023-03-25T16:19:47;97186.84;;;10.83;100.00
17505;BME280;8870;50.950;11.762;2023-03-25T16:25:13;97187.50;;;10.63;100.00
17505;BME280;8870;50.950;11.762;2023-03-25T16:30:49;97184.38;;;10.44;100.00
17505;BME280;8870;50.950;11.762;2023-03-25T16:36:14;97192.94;;;10.33;100.00
17505;BME280;8870;50.950;11.762;2023-03-25T16:41:49;97186.28;;;10.29;100.00
17505;BME280;8870;50.950;11.762;2023-03-25T16:47:10;97185.22;;;10.30;100.00
17505;BME280;8870;50.950;11.762;2023-03-25T16:52:45;97222.09;;;10.44;100.00
17505;BME280;8870;50.950;11.762;2023-03-25T16:58:24;97231.13;;;10.22;100.00
17505;BME280;8870;50.950;11.762;2023-03-25T17:03:45;97207.19;;;10.12;100.00
17505;BME280;8870;50.950;11.762;2023-03-25T17:09:21;97209.00;;;9.90;100.00
17505;BME280;8870;50.950;11.762;2023-03-25T17:14:42;97208.81;;;9.76;100.00
17505;BME280;8870;50.950;11.762;2023-03-25T17:20:16;97213.06;;;9.55;100.00
17505;BME280;8870;50.950;11.762;2023-03-25T17:25:49;97209.44;;;9.48;100.00
17505;BME280;8870;50.950;11.762;2023-03-25T17:31:27;97213.97;;;9.33;100.00
17505;BME280;8870;50.950;11.762;2023-03-25T17:36:49;97215.81;;;9.17;100.00
17505;BME280;8870;50.950;11.762;2023-03-25T17:42:33;97226.09;;;9.14;100.00
17505;BME280;8870;50.950;11.762;2023-03-25T17:47:52;97235.97;;;9.13;100.00
17505;BME280;8870;50.950;11.762;2023-03-25T17:53:23;97243.47;;;9.03;100.00
17505;BME280;8870;50.950;11.762;2023-03-25T17:59:00;97248.16;;;9.01;100.00
17505;BME280;8870;50.950;11.762;2023-03-25T18:04:19;97266.50;;;8.97;100.00
17505;BME280;8870;50.950;11.762;2023-03-25T18:09:50;97287.66;;;9.00;100.00
17505;BME280;8870;50.950;11.762;2023-03-25T18:15:11;97292.13;;;9.08;100.00
17505;BME280;8870;50.950;11.762;2023-03-25T18:20:45;97347.22;;;8.81;100.00
17505;BME280;8870;50.950;11.762;2023-03-25T18:26:08;97328.34;;;8.09;100.00
17505;BME280;8870;50.950;11.762;2023-03-25T18:31:44;97321.91;;;7.62;100.00
17505;BME280;8870;50.950;11.762;2023-03-25T18:37:02;97325.09;;;7.41;100.00
17505;BME280;8870;50.950;11.762;2023-03-25T18:42:33;97321.94;;;7.29;100.00
17505;BME280;8870;50.950;11.762;2023-03-25T18:47:54;97323.63;;;7.22;100.00
17505;BME280;8870;50.950;11.762;2023-03-25T18:53:26;97316.44;;;7.14;100.00
17505;BME280;8870;50.950;11.762;2023-03-25T18:58:58;97321.94;;;7.13;100.00
17505;BME280;8870;50.950;11.762;2023-03-25T19:04:19;97351.38;;;7.04;100.00
17505;BME280;8870;50.950;11.762;2023-03-25T19:10:01;97348.38;;;6.99;100.00
17505;BME280;8870;50.950;11.762;2023-03-25T19:15:21;97349.03;;;7.01;100.00
17505;BME280;8870;50.950;11.762;2023-03-25T19:20:56;97339.00;;;7.12;100.00
17505;BME280;8870;50.950;11.762;2023-03-25T19:26:14;97348.06;;;7.11;100.00
17505;BME280;8870;50.950;11.762;2023-03-25T19:31:46;97354.06;;;7.04;100.00
17505;BME280;8870;50.950;11.762;2023-03-25T19:37:07;97330.13;;;7.03;100.00
17505;BME280;8870;50.950;11.762;2023-03-25T19:42:38;97321.94;;;7.04;100.00
17505;BME280;8870;50.950;11.762;2023-03-25T19:47:56;97321.28;;;7.11;100.00
17505;BME280;8870;50.950;11.762;2023-03-25T19:53:30;97326.28;;;7.14;100.00
17505;BME280;8870;50.950;11.762;2023-03-25T19:59:01;97331.16;;;7.27;100.00
17505;BME280;8870;50.950;11.762;2023-03-25T20:04:19;97320.63;;;7.33;100.00
17505;BME280;8870;50.950;11.762;2023-03-25T20:09:53;97326.78;;;7.42;100.00
17505;BME280;8870;50.950;11.762;2023-03-25T20:15:27;97327.94;;;7.48;100.00
17505;BME280;8870;50.950;11.762;2023-03-25T20:20:58;97344.88;;;7.56;100.00
17505;BME280;8870;50.950;11.762;2023-03-25T20:26:19;97338.50;;;7.58;100.00
17505;BME280;8870;50.950;11.762;2023-03-25T20:31:51;97339.69;;;7.55;100.00
17505;BME280;8870;50.950;11.762;2023-03-25T20:37:10;97328.63;;;7.58;100.00
17505;BME280;8870;50.950;11.762;2023-03-25T20:42:46;97338.34;;;7.43;100.00
17505;BME280;8870;50.950;11.762;2023-03-25T20:48:04;97334.16;;;7.56;100.00
17505;BME280;8870;50.950;11.762;2023-03-25T20:53:36;97346.38;;;7.59;100.00
17505;BME280;8870;50.950;11.762;2023-03-25T20:59:11;97345.00;;;7.71;100.00
17505;BME280;8870;50.950;11.762;2023-03-25T21:04:42;97342.03;;;7.66;100.00
17505;BME280;8870;50.950;11.762;2023-03-25T21:10:00;97336.81;;;7.56;100.00
17505;BME280;8870;50.950;11.762;2023-03-25T21:15:38;97327.78;;;7.41;100.00
17505;BME280;8870;50.950;11.762;2023-03-25T21:20:59;97314.59;;;7.31;100.00
17505;BME280;8870;50.950;11.762;2023-03-25T21:26:31;97323.13;;;7.27;100.00
17505;BME280;8870;50.950;11.762;2023-03-25T21:31:53;97324.94;;;7.18;100.00
17505;BME280;8870;50.950;11.762;2023-03-25T21:37:24;97318.25;;;7.14;100.00
17505;BME280;8870;50.950;11.762;2023-03-25T21:42:43;97314.06;;;7.11;100.00
17505;BME280;8870;50.950;11.762;2023-03-25T21:48:18;97323.09;;;7.18;100.00
17505;BME280;8870;50.950;11.762;2023-03-25T21:53:44;97327.13;;;7.14;100.00
17505;BME280;8870;50.950;11.762;2023-03-25T21:59:19;97327.59;;;7.01;100.00
17505;BME280;8870;50.950;11.762;2023-03-25T22:04:41;97330.28;;;6.93;100.00
17505;BME280;8870;50.950;11.762;2023-03-25T22:10:12;97345.31;;;6.77;100.00
17505;BME280;8870;50.950;11.762;2023-03-25T22:15:30;97351.16;;;6.73;100.00
17505;BME280;8870;50.950;11.762;2023-03-25T22:21:09;97352.84;;;6.82;100.00
17505;BME280;8870;50.950;11.762;2023-03-25T22:26:29;97356.72;;;6.88;100.00
17505;BME280;8870;50.950;11.762;2023-03-25T22:32:04;97356.72;;;6.88;100.00
17505;BME280;8870;50.950;11.762;2023-03-25T22:37:25;97351.72;;;7.01;100.00
17505;BME280;8870;50.950;11.762;2023-03-25T22:42:57;97354.25;;;7.11;100.00
17505;BME280;8870;50.950;11.762;2023-03-25T22:53:50;97356.59;;;7.22;100.00
17505;BME280;8870;50.950;11.762;2023-03-25T22:59:22;97368.81;;;7.25;100.00
17505;BME280;8870;50.950;11.762;2023-03-25T23:04:40;97372.16;;;7.27;100.00
17505;BME280;8870;50.950;11.762;2023-03-25T23:10:14;97369.00;;;7.23;100.00
17505;BME280;8870;50.950;11.762;2023-03-25T23:15:32;97374.50;;;7.14;100.00
17505;BME280;8870;50.950;11.762;2023-03-25T23:21:04;97371.00;;;7.05;100.00
17505;BME280;8870;50.950;11.762;2023-03-25T23:26:26;97378.84;;;7.06;100.00
17505;BME280;8870;50.950;11.762;2023-03-25T23:31:59;97380.34;;;7.01;100.00
17505;BME280;8870;50.950;11.762;2023-03-25T23:37:17;97385.50;;;6.94;100.00
17505;BME280;8870;50.950;11.762;2023-03-25T23:42:52;97381.16;;;6.93;100.00
17505;BME280;8870;50.950;11.762;2023-03-25T23:48:10;97389.19;;;6.85;100.00
17505;BME280;8870;50.950;11.762;2023-03-25T23:53:45;97399.00;;;6.76;100.00
17505;BME280;8870;50.950;11.762;2023-03-25T23:59:19;97400.88;;;6.75;100.00
